Time;durP1;ratioP1;P1;durP2;ratioP2;P2;SDS_P1;SDS_P2;PMS_P1;PMS_P2;Temp;Humidity;BMP_temperature;BMP_pressure;BME280_temperature;BME280_humidity;BME280_pressure;Samples;Min_cycle;Max_cycle;Signal;HPM_P1;HPM_P2
2024/04/13 00:02:31;;;;;;;1.50;1.23;;;23.00;75.40;;;;;;5431165;26;20534;-44
2024/04/13 00:04:59;;;;;;;1.63;1.37;;;23.00;75.60;;;;;;5435697;26;20562;-39
2024/04/13 00:07:33;;;;;;;1.20;1.10;;;23.00;75.60;;;;;;5420901;26;21784;-47
2024/04/13 00:10:03;;;;;;;1.77;1.63;;;22.90;75.60;;;;;;5434042;26;22055;-45
2024/04/13 00:12:37;;;;;;;2.23;1.50;;;22.90;75.70;;;;;;5420344;26;21491;-47
2024/04/13 00:15:11;;;;;;;1.50;1.13;;;22.90;75.90;;;;;;5438545;26;21717;-45
2024/04/13 00:17:39;;;;;;;1.30;1.07;;;22.90;76.00;;;;;;5425317;26;20576;-49
2024/04/13 00:20:05;;;;;;;1.43;1.10;;;22.90;76.00;;;;;;5436195;26;20475;-47
2024/04/13 00:22:47;;;;;;;1.83;1.70;;;22.80;76.00;;;;;;5438327;26;20588;-42
2024/04/13 00:25:13;;;;;;;1.20;1.07;;;22.80;76.20;;;;;;5435299;26;20704;-45
2024/04/13 00:27:45;;;;;;;1.67;1.47;;;22.80;76.20;;;;;;5417809;26;21489;-48
2024/04/13 00:30:13;;;;;;;1.83;1.43;;;22.70;76.20;;;;;;5430798;26;20870;-39
2024/04/13 00:32:42;;;;;;;1.80;1.53;;;22.70;76.40;;;;;;5434381;26;20509;-48
2024/04/13 00:35:08;;;;;;;1.30;1.20;;;22.70;76.50;;;;;;5443517;26;20463;-43
2024/04/13 00:37:45;;;;;;;1.93;1.30;;;22.70;76.60;;;;;;5411638;26;20467;-43
2024/04/13 00:40:23;;;;;;;1.63;1.10;;;22.60;76.60;;;;;;5434650;26;20348;-44
2024/04/13 00:43:06;;;;;;;1.30;1.20;;;22.60;76.70;;;;;;5439915;26;20550;-49
2024/04/13 00:45:55;;;;;;;;;;;;;;;;;;;;;
2024/04/13 00:48:31;;;;;;;1.70;1.60;;;22.60;77.30;;;;;;5429401;26;20479;-48
2024/04/13 00:50:59;;;;;;;3.10;1.20;;;22.60;77.20;;;;;;5436917;26;20797;-45
2024/04/13 00:53:28;;;;;;;1.40;1.20;;;22.50;77.10;;;;;;5431163;26;21450;-43
2024/04/13 00:56:00;;;;;;;1.80;1.53;;;22.60;77.30;;;;;;5429274;26;21078;-39
2024/04/13 00:58:41;;;;;;;1.20;1.10;;;22.50;77.30;;;;;;5433611;26;20538;-43
2024/04/13 01:01:10;;;;;;;1.67;1.50;;;22.50;77.40;;;;;;5429803;26;20475;-42
2024/04/13 01:03:43;;;;;;;2.70;2.27;;;22.50;77.50;;;;;;5426737;26;20513;-43
2024/04/13 01:06:17;;;;;;;1.70;1.30;;;22.40;77.50;;;;;;5433647;26;20567;-44
2024/04/13 01:08:46;;;;;;;1.63;1.53;;;22.40;77.60;;;;;;5426403;26;20468;-37
2024/04/13 01:11:18;;;;;;;1.60;1.50;;;22.40;77.70;;;;;;5430944;26;20455;-40
2024/04/13 01:13:54;;;;;;;1.50;1.10;;;22.30;77.70;;;;;;5426030;26;20518;-44
2024/04/13 01:16:25;;;;;;;1.77;1.40;;;22.30;77.80;;;;;;5419016;26;21247;-43
2024/04/13 01:18:54;;;;;;;1.40;1.30;;;22.30;78.00;;;;;;5433168;26;20524;-44
2024/04/13 01:21:22;;;;;;;2.07;1.47;;;22.30;78.00;;;;;;5438665;26;20470;-49
2024/04/13 01:24:00;;;;;;;1.20;1.10;;;22.30;78.90;;;;;;5408190;26;20465;-43
2024/04/13 01:26:37;;;;;;;1.30;1.20;;;22.20;78.10;;;;;;5428711;26;20578;-39
2024/04/13 01:29:10;;;;;;;1.73;1.10;;;22.20;78.10;;;;;;5416267;26;20597;-38
2024/04/13 01:31:45;;;;;;;2.00;1.63;;;22.20;78.20;;;;;;5422512;26;20471;-44
2024/04/13 01:34:16;;;;;;;1.50;1.40;;;22.20;78.20;;;;;;5439338;26;20474;-38
2024/04/13 01:36:46;;;;;;;1.43;1.33;;;22.20;78.40;;;;;;5403601;26;21289;-42
2024/04/13 01:39:24;;;;;;;1.80;1.60;;;22.20;78.40;;;;;;5437330;26;20468;-37
2024/04/13 01:41:58;;;;;;;1.50;1.23;;;22.10;78.40;;;;;;5428938;26;20475;-38
2024/04/13 01:44:32;;;;;;;1.50;1.40;;;22.20;78.60;;;;;;5431357;26;21167;-47
2024/04/13 01:47:02;;;;;;;1.63;1.53;;;22.20;78.60;;;;;;5438051;26;20470;-41
2024/04/13 01:49:38;;;;;;;1.57;1.13;;;22.10;78.60;;;;;;5423479;26;20456;-41
2024/04/13 01:52:21;;;;;;;1.60;1.20;;;22.10;78.70;;;;;;5420800;26;20586;-45
2024/04/13 01:54:59;;;;;;;1.70;1.40;;;22.10;78.80;;;;;;5439268;26;20482;-46
2024/04/13 01:57:25;;;;;;;1.80;1.43;;;22.00;78.80;;;;;;5433466;26;20480;-42
2024/04/13 02:00:04;;;;;;;1.50;1.30;;;22.10;79.00;;;;;;5445043;26;21233;-43
2024/04/13 02:02:44;;;;;;;1.63;1.53;;;22.00;79.00;;;;;;5437612;26;20235;-39
2024/04/13 02:05:13;;;;;;;1.40;1.30;;;22.00;79.20;;;;;;5441374;26;21053;-44
2024/04/13 02:07:42;;;;;;;1.50;1.30;;;21.90;79.10;;;;;;5436166;26;20471;-40
2024/04/13 02:10:15;;;;;;;1.40;1.27;;;22.00;79.30;;;;;;5435437;26;20464;-39
2024/04/13 02:12:58;;;;;;;1.70;1.60;;;21.90;79.30;;;;;;5435848;26;20949;-44
2024/04/13 02:15:28;;;;;;;1.63;1.33;;;21.90;79.50;;;;;;5432670;26;21003;-43
2024/04/13 02:17:59;;;;;;;1.47;1.37;;;21.90;79.60;;;;;;5443683;26;20524;-40
2024/04/13 02:20:28;;;;;;;1.90;1.50;;;21.90;79.70;;;;;;5427948;26;20471;-48
2024/04/13 02:22:56;;;;;;;1.70;1.60;;;21.80;79.70;;;;;;5427588;26;20536;-42
2024/04/13 02:25:30;;;;;;;1.47;1.37;;;21.80;79.80;;;;;;5428559;26;20242;-45
2024/04/13 02:27:57;;;;;;;2.30;1.30;;;21.80;79.90;;;;;;5425108;26;20958;-43
2024/04/13 02:30:31;;;;;;;1.30;1.20;;;21.80;80.00;;;;;;5430839;26;20588;-47
2024/04/13 02:33:04;;;;;;;1.40;1.17;;;21.80;80.10;;;;;;5441632;26;20459;-45
2024/04/13 02:35:36;;;;;;;1.70;1.40;;;21.70;80.10;;;;;;5432456;26;20468;-45
2024/04/13 02:38:04;;;;;;;1.40;1.20;;;21.70;80.30;;;;;;5446764;26;20581;-41
2024/04/13 02:40:37;;;;;;;1.70;1.10;;;21.70;80.50;;;;;;5438228;26;21218;-43
2024/04/13 02:43:05;;;;;;;2.33;1.43;;;21.70;80.50;;;;;;5434194;26;21528;-42
2024/04/13 02:45:40;;;;;;;1.60;1.50;;;21.70;80.50;;;;;;5433275;26;20463;-41
2024/04/13 02:48:08;;;;;;;1.10;1.00;;;21.60;80.50;;;;;;5434549;26;20241;-39
2024/04/13 02:50:45;;;;;;;1.30;1.20;;;21.60;80.70;;;;;;5442057;26;20452;-40
2024/04/13 02:53:14;;;;;;;1.67;1.30;;;21.60;81.00;;;;;;5439313;26;21311;-42
2024/04/13 02:55:49;;;;;;;1.20;1.10;;;21.60;81.00;;;;;;5439286;26;20473;-43
2024/04/13 02:58:19;;;;;;;1.60;1.43;;;21.60;81.00;;;;;;5439160;26;21201;-41
2024/04/13 03:00:56;;;;;;;1.60;1.43;;;21.50;81.10;;;;;;5440367;26;20502;-44
2024/04/13 03:03:26;;;;;;;1.80;1.50;;;21.50;81.20;;;;;;5439369;26;20469;-47
2024/04/13 03:06:14;;;;;;;1.45;1.30;;;21.50;81.30;;;;;;5433638;26;20467;-37
2024/04/13 03:08:50;;;;;;;1.83;1.50;;;21.50;81.40;;;;;;5447000;26;20309;-37
2024/04/13 03:11:26;;;;;;;1.67;1.33;;;21.50;81.50;;;;;;5434099;26;20635;-41
2024/04/13 03:13:52;;;;;;;1.90;1.67;;;21.40;81.50;;;;;;5436917;26;20587;-46
2024/04/13 03:16:27;;;;;;;1.40;1.30;;;21.40;81.60;;;;;;5432486;26;20816;-47
2024/04/13 03:18:58;;;;;;;1.38;1.27;;;21.30;81.70;;;;;;5417524;26;20233;-44
2024/04/13 03:21:29;;;;;;;1.75;1.65;;;21.40;82.00;;;;;;5428087;26;20339;-40
2024/04/13 03:23:59;;;;;;;1.70;1.60;;;21.40;82.00;;;;;;5442356;26;20235;-41
2024/04/13 03:26:30;;;;;;;1.50;1.38;;;21.40;82.10;;;;;;5441191;26;20278;-48
2024/04/13 03:29:01;;;;;;;1.70;1.60;;;21.30;82.30;;;;;;5436858;26;21338;-44
2024/04/13 03:31:31;;;;;;;1.80;1.58;;;21.30;82.30;;;;;;5440448;26;20475;-42
2024/04/13 03:34:02;;;;;;;1.60;1.50;;;21.30;82.50;;;;;;5437633;26;20230;-43
2024/04/13 03:36:34;;;;;;;1.27;1.15;;;21.20;82.50;;;;;;5417359;26;20472;-40
2024/04/13 03:39:02;;;;;;;1.80;1.60;;;21.20;82.60;;;;;;5445589;26;20260;-42
2024/04/13 03:41:45;;;;;;;1.65;1.35;;;21.30;82.90;;;;;;5432786;26;20227;-48
2024/04/13 03:44:11;;;;;;;1.40;1.30;;;21.20;82.90;;;;;;5436988;26;20282;-40
2024/04/13 03:46:44;;;;;;;1.40;1.17;;;21.20;83.00;;;;;;5417959;26;20289;-44
2024/04/13 03:49:21;;;;;;;2.10;1.70;;;21.20;83.10;;;;;;5433406;26;20468;-44
2024/04/13 03:51:53;;;;;;;1.77;1.42;;;21.00;83.00;;;;;;5425198;26;20597;-35
2024/04/13 03:54:28;;;;;;;1.45;1.35;;;21.10;83.30;;;;;;5431913;26;20340;-38
2024/04/13 03:57:02;;;;;;;1.42;1.33;;;21.10;83.40;;;;;;5425158;26;21435;-38
2024/04/13 03:59:33;;;;;;;1.67;1.40;;;21.00;83.40;;;;;;5431925;26;20265;-42
2024/04/13 04:02:02;;;;;;;1.50;1.30;;;21.00;83.60;;;;;;5418321;26;20330;-45
2024/04/13 04:04:36;;;;;;;2.05;1.70;;;21.00;83.70;;;;;;5433473;26;20333;-46
2024/04/13 04:07:13;;;;;;;1.40;1.30;;;21.00;83.80;;;;;;5424178;26;20766;-45
2024/04/13 04:09:49;;;;;;;1.40;1.25;;;21.00;83.90;;;;;;5435105;26;20471;-39
2024/04/13 04:12:19;;;;;;;1.50;1.40;;;21.00;83.90;;;;;;5440603;26;20642;-42
2024/04/13 04:14:48;;;;;;;1.70;1.60;;;21.00;84.00;;;;;;5439107;26;20274;-34
2024/04/13 04:17:17;;;;;;;1.50;1.40;;;21.00;84.10;;;;;;5433586;26;20238;-36
2024/04/13 04:19:46;;;;;;;1.50;1.40;;;21.00;84.20;;;;;;5422280;26;20247;-39
2024/04/13 04:22:13;;;;;;;2.10;1.50;;;21.00;84.30;;;;;;5424677;26;20226;-44
2024/04/13 04:24:45;;;;;;;1.60;1.50;;;21.00;84.40;;;;;;5422218;26;20757;-42
2024/04/13 04:27:13;;;;;;;1.35;1.25;;;20.90;84.40;;;;;;5437256;26;20226;-45
2024/04/13 04:29:49;;;;;;;1.20;1.10;;;20.90;84.50;;;;;;5423220;26;20264;-45
2024/04/13 04:32:18;;;;;;;1.70;1.60;;;20.90;84.50;;;;;;5424763;26;20234;-40
2024/04/13 04:34:46;;;;;;;1.88;1.52;;;20.90;84.60;;;;;;5428158;26;20620;-46
2024/04/13 04:37:19;;;;;;;1.63;1.42;;;20.90;84.80;;;;;;5426917;26;20334;-42
2024/04/13 04:39:51;;;;;;;1.30;1.20;;;21.00;85.00;;;;;;5426340;26;20575;-44
2024/04/13 04:42:18;;;;;;;1.60;1.30;;;20.80;84.80;;;;;;5411048;26;20235;-42
2024/04/13 04:44:52;;;;;;;1.40;1.27;;;20.80;84.90;;;;;;5424832;26;20245;-45
2024/04/13 04:47:18;;;;;;;1.35;1.15;;;20.80;85.00;;;;;;5431013;26;20376;-43
2024/04/13 04:49:48;;;;;;;1.50;1.40;;;20.80;85.00;;;;;;5434854;26;20255;-40
2024/04/13 04:52:17;;;;;;;2.08;1.23;;;20.80;85.20;;;;;;5431738;26;20238;-43
2024/04/13 04:54:45;;;;;;;1.20;1.10;;;20.80;85.30;;;;;;5440132;26;21537;-41
2024/04/13 04:57:14;;;;;;;1.40;1.30;;;20.80;85.40;;;;;;5440042;26;20281;-41
2024/04/13 04:59:42;;;;;;;1.63;1.40;;;20.70;85.30;;;;;;5422719;26;20310;-39
2024/04/13 05:02:15;;;;;;;2.10;1.90;;;20.70;85.40;;;;;;5426829;26;20973;-43
2024/04/13 05:04:43;;;;;;;2.17;1.50;;;20.70;85.50;;;;;;5436161;26;20827;-41
2024/04/13 05:07:11;;;;;;;1.67;1.58;;;20.70;85.60;;;;;;5444569;26;20722;-41
2024/04/13 05:09:39;;;;;;;1.30;1.20;;;20.70;85.70;;;;;;5427815;26;20329;-42
2024/04/13 05:12:22;;;;;;;1.42;1.33;;;20.70;85.70;;;;;;5442524;26;20358;-45
2024/04/13 05:14:51;;;;;;;2.67;1.80;;;20.60;85.70;;;;;;5441115;26;20235;-46
2024/04/13 05:17:23;;;;;;;1.70;1.60;;;20.70;86.00;;;;;;5415173;26;20231;-39
2024/04/13 05:19:55;;;;;;;2.00;1.30;;;20.70;86.10;;;;;;5413726;26;21226;-41
2024/04/13 05:22:26;;;;;;;1.70;1.60;;;20.70;86.10;;;;;;5438222;26;20222;-39
2024/04/13 05:24:55;;;;;;;1.70;1.15;;;20.60;86.00;;;;;;5445548;26;20290;-40
2024/04/13 05:27:25;;;;;;;1.67;1.58;;;20.60;86.20;;;;;;5426259;26;21084;-42
2024/04/13 05:29:56;;;;;;;1.40;1.30;;;20.60;86.20;;;;;;5433955;26;21081;-45
2024/04/13 05:32:27;;;;;;;1.52;1.42;;;20.60;86.30;;;;;;5434598;26;20735;-37
2024/04/13 05:35:01;;;;;;;1.50;1.40;;;20.60;86.40;;;;;;5434224;26;21060;-50
2024/04/13 05:37:36;;;;;;;1.60;1.30;;;20.60;86.50;;;;;;5442637;26;22882;-38
2024/04/13 05:40:04;;;;;;;1.63;1.50;;;20.60;86.60;;;;;;5428487;26;20504;-44
2024/04/13 05:42:45;;;;;;;2.10;1.50;;;20.60;86.60;;;;;;5422482;26;20326;-39
2024/04/13 05:45:21;;;;;;;1.55;1.45;;;20.50;86.60;;;;;;5434475;26;20222;-43
2024/04/13 05:47:55;;;;;;;1.75;1.45;;;20.50;86.70;;;;;;5430859;26;20243;-45
2024/04/13 05:50:24;;;;;;;1.48;1.38;;;20.50;86.80;;;;;;5433230;26;20230;-44
2024/04/13 05:52:52;;;;;;;1.50;1.40;;;20.50;86.80;;;;;;5425324;26;21281;-43
2024/04/13 05:55:31;;;;;;;1.33;1.23;;;20.50;86.90;;;;;;5438318;26;20333;-39
2024/04/13 05:58:01;;;;;;;1.58;1.48;;;20.50;86.90;;;;;;5429806;26;20230;-45
2024/04/13 06:00:31;;;;;;;1.77;1.48;;;20.50;87.00;;;;;;5427786;26;20277;-40
2024/04/13 06:03:04;;;;;;;1.80;1.67;;;20.40;87.10;;;;;;5439556;26;20234;-40
2024/04/13 06:05:37;;;;;;;1.90;1.70;;;20.40;87.20;;;;;;5423285;26;20918;-37
2024/04/13 06:08:03;;;;;;;1.60;1.50;;;20.40;87.30;;;;;;5430174;26;20326;-41
2024/04/13 06:10:33;;;;;;;1.52;1.40;;;20.40;87.30;;;;;;5424657;26;21661;-44
2024/04/13 06:12:59;;;;;;;1.40;1.20;;;20.40;87.30;;;;;;5444804;26;20261;-44
2024/04/13 06:15:29;;;;;;;1.70;1.60;;;20.40;88.10;;;;;;5426534;26;20234;-41
2024/04/13 06:18:03;;;;;;;1.30;1.20;;;20.40;87.40;;;;;;5422152;26;20251;-42
2024/04/13 06:20:33;;;;;;;1.75;1.65;;;20.30;87.20;;;;;;5427880;26;20299;-45
2024/04/13 06:22:59;;;;;;;1.48;1.30;;;20.40;87.30;;;;;;5424015;26;20234;-37
2024/04/13 06:25:27;;;;;;;1.60;1.50;;;20.40;87.20;;;;;;5443703;26;20227;-38
2024/04/13 06:27:57;;;;;;;2.28;1.60;;;20.50;87.30;;;;;;5426788;26;20239;-35
2024/04/13 06:30:31;;;;;;;1.50;1.40;;;20.40;87.20;;;;;;5418274;26;20362;-44
2024/04/13 06:33:02;;;;;;;2.00;1.80;;;20.50;87.80;;;;;;5403415;26;20379;-40
2024/04/13 06:35:36;;;;;;;1.55;1.45;;;20.50;87.40;;;;;;5437362;26;20265;-45
2024/04/13 06:38:03;;;;;;;1.30;1.20;;;20.60;87.00;;;;;;5440625;26;20238;-38
2024/04/13 06:40:33;;;;;;;1.67;1.45;;;20.70;87.10;;;;;;5438448;26;20242;-37
2024/04/13 06:43:01;;;;;;;1.40;1.30;;;20.80;86.80;;;;;;5422373;26;20285;-44
2024/04/13 06:45:35;;;;;;;1.40;1.20;;;20.80;86.50;;;;;;5431896;26;20281;-36
2024/04/13 06:48:05;;;;;;;1.60;1.15;;;20.90;86.50;;;;;;5439679;26;20290;-38
2024/04/13 06:50:35;;;;;;;1.40;1.20;;;21.00;86.20;;;;;;5430676;26;20335;-43
2024/04/13 06:53:14;;;;;;;3.50;1.20;;;21.10;85.90;;;;;;5436360;26;20578;-39
2024/04/13 06:55:42;;;;;;;1.27;1.17;;;21.10;85.60;;;;;;5434024;26;21335;-39
2024/04/13 06:58:17;;;;;;;3.53;1.73;;;21.20;85.40;;;;;;5444076;26;21482;-44
2024/04/13 07:00:48;;;;;;;1.23;0.93;;;21.30;85.10;;;;;;5430007;26;20966;-41
2024/04/13 07:03:17;;;;;;;1.50;1.27;;;21.30;84.90;;;;;;5437187;26;20467;-40
2024/04/13 07:05:49;;;;;;;2.10;2.00;;;21.30;84.70;;;;;;5428949;26;20535;-45
2024/04/13 07:08:23;;;;;;;1.43;1.33;;;21.40;84.50;;;;;;5440009;26;20570;-43
2024/04/13 07:10:52;;;;;;;1.33;1.20;;;21.50;84.20;;;;;;5426675;26;21116;-40
2024/04/13 07:13:24;;;;;;;2.07;1.70;;;21.60;84.20;;;;;;5431624;26;21042;-46
2024/04/13 07:15:58;;;;;;;2.03;1.80;;;21.70;84.00;;;;;;5441548;26;21131;-44
2024/04/13 07:18:35;;;;;;;5.47;2.07;;;21.70;83.90;;;;;;5426768;26;20501;-48
2024/04/13 07:21:05;;;;;;;6.20;2.30;;;21.80;84.20;;;;;;5429696;26;20507;-47
2024/04/13 07:23:31;;;;;;;3.53;3.07;;;21.80;85.30;;;;;;5427787;26;20524;-43
2024/04/13 07:26:01;;;;;;;3.60;2.73;;;21.80;85.70;;;;;;5430999;26;20463;-43
2024/04/13 07:28:28;;;;;;;8.97;2.63;;;21.80;86.20;;;;;;5419654;26;20273;-47
2024/04/13 07:30:56;;;;;;;5.53;3.13;;;21.80;86.30;;;;;;5426779;26;21290;-49
2024/04/13 07:33:34;;;;;;;;;;;;;;;;;;;;;
2024/04/13 07:36:09;;;;;;;4.23;2.90;;;21.90;87.10;;;;;;5417779;26;20633;-37
2024/04/13 07:38:42;;;;;;;4.40;3.20;;;21.90;86.80;;;;;;5415941;26;20486;-53
2024/04/13 07:41:27;;;;;;;4.13;3.50;;;22.00;86.80;;;;;;5436811;26;20581;-47
2024/04/13 07:44:04;;;;;;;4.63;2.90;;;22.10;86.30;;;;;;5412757;26;21394;-51
2024/04/13 07:46:34;;;;;;;4.20;2.40;;;22.20;85.60;;;;;;5421708;26;20697;-44
2024/04/13 07:49:00;;;;;;;3.83;2.00;;;22.30;84.80;;;;;;5429882;26;20906;-47
2024/04/13 07:51:36;;;;;;;3.97;2.33;;;22.30;84.40;;;;;;5417200;26;20535;-38
2024/04/13 07:54:02;;;;;;;4.27;2.50;;;22.40;84.00;;;;;;5448522;26;20264;-41
2024/04/13 07:56:36;;;;;;;4.47;2.20;;;22.50;83.70;;;;;;5460844;26;20459;-40
2024/04/13 07:59:11;;;;;;;2.60;1.87;;;22.60;83.20;;;;;;5427383;26;21022;-43
2024/04/13 08:01:42;;;;;;;5.60;2.53;;;22.70;82.80;;;;;;5427492;26;20835;-40
2024/04/13 08:04:11;;;;;;;4.60;2.17;;;22.70;82.60;;;;;;5430226;26;20475;-46
2024/04/13 08:06:45;;;;;;;6.77;2.60;;;22.80;82.30;;;;;;5422237;26;20477;-50
2024/04/13 08:09:16;;;;;;;4.70;2.03;;;22.80;82.00;;;;;;5428579;26;21121;-40
2024/04/13 08:11:52;;;;;;;2.80;1.73;;;22.80;81.70;;;;;;5417381;26;20900;-41
2024/04/13 08:14:21;;;;;;;4.50;2.20;;;22.90;81.40;;;;;;5439720;26;20480;-43
2024/04/13 08:16:54;;;;;;;3.13;1.87;;;22.90;81.20;;;;;;5431249;26;20918;-41
2024/04/13 08:19:19;;;;;;;3.97;1.80;;;22.90;80.90;;;;;;5428987;26;20517;-40
2024/04/13 08:22:02;;;;;;;2.73;2.27;;;22.90;80.70;;;;;;5438004;26;21013;-44
2024/04/13 08:24:34;;;;;;;4.27;2.57;;;23.00;80.60;;;;;;5429068;26;20226;-48
2024/04/13 08:27:08;;;;;;;4.50;2.20;;;23.00;80.40;;;;;;5438717;26;20514;-51
2024/04/13 08:29:34;;;;;;;3.83;2.13;;;23.00;80.30;;;;;;5434753;26;20451;-42
2024/04/13 08:32:04;;;;;;;2.27;1.97;;;23.10;80.20;;;;;;5441094;26;21030;-43
2024/04/13 08:34:35;;;;;;;5.17;2.43;;;23.10;79.80;;;;;;5412048;26;20339;-45
2024/04/13 08:37:07;;;;;;;2.23;1.70;;;23.10;79.80;;;;;;5418758;26;21097;-49
2024/04/13 08:39:35;;;;;;;2.47;2.00;;;23.10;79.60;;;;;;5436070;26;20877;-47
2024/04/13 08:42:12;;;;;;;2.80;1.83;;;23.20;79.50;;;;;;5438615;26;20977;-44
2024/04/13 08:44:52;;;;;;;6.67;1.50;;;23.20;79.20;;;;;;5428133;26;20593;-47
2024/04/13 08:47:26;;;;;;;2.90;1.97;;;23.20;79.10;;;;;;5431862;26;20958;-43
2024/04/13 08:50:07;;;;;;;5.93;2.20;;;23.20;79.00;;;;;;5437276;26;20481;-40
2024/04/13 08:52:42;;;;;;;3.00;2.10;;;23.20;79.10;;;;;;5438029;26;20459;-49
2024/04/13 08:55:13;;;;;;;4.40;2.27;;;23.20;78.90;;;;;;5442086;26;20879;-45
2024/04/13 08:57:47;;;;;;;2.40;1.70;;;23.30;78.80;;;;;;5432812;26;20464;-47
2024/04/13 09:00:19;;;;;;;2.87;1.53;;;23.20;78.60;;;;;;5429748;26;20471;-51
2024/04/13 09:02:49;;;;;;;3.73;2.50;;;23.20;78.90;;;;;;5414212;26;21328;-43
2024/04/13 09:05:38;;;;;;;1.70;1.40;;;23.30;78.50;;;;;;5415687;26;20524;-51
2024/04/13 09:08:20;;;;;;;2.90;1.60;;;23.30;78.20;;;;;;5431768;26;20804;-51
2024/04/13 09:11:05;;;;;;;2.00;1.40;;;23.30;78.20;;;;;;5439066;26;20566;-51
2024/04/13 09:13:39;;;;;;;3.23;2.07;;;23.20;78.00;;;;;;5433385;26;21067;-45
2024/04/13 09:16:23;;;;;;;5.20;3.03;;;23.30;77.90;;;;;;5433668;26;21434;-41
2024/04/13 09:19:00;;;;;;;3.77;2.33;;;23.30;77.80;;;;;;5431927;26;20523;-40
2024/04/13 09:21:30;;;;;;;2.57;1.70;;;23.40;77.80;;;;;;5444521;26;20467;-47
2024/04/13 09:24:06;;;;;;;2.40;1.70;;;23.30;77.60;;;;;;5425285;26;20472;-49
2024/04/13 09:26:40;;;;;;;3.53;1.93;;;23.30;77.60;;;;;;5442696;26;20460;-44
2024/04/13 09:29:17;;;;;;;2.10;1.90;;;23.30;77.50;;;;;;5430720;26;20447;-42
2024/04/13 09:31:58;;;;;;;2.03;1.77;;;23.30;77.30;;;;;;5439886;26;20596;-42
2024/04/13 09:34:36;;;;;;;2.30;2.10;;;23.30;77.30;;;;;;5437900;26;20479;-45
2024/04/13 09:37:17;;;;;;;4.60;2.80;;;23.30;77.30;;;;;;5429409;26;20556;-53
2024/04/13 09:40:09;;;;;;;2.33;1.90;;;23.30;77.20;;;;;;5432690;26;20511;-48
2024/04/13 09:42:50;;;;;;;2.00;1.33;;;23.30;77.20;;;;;;5415677;26;20855;-46
2024/04/13 09:45:19;;;;;;;2.33;1.43;;;23.30;77.10;;;;;;5424899;26;21161;-42
2024/04/13 09:47:46;;;;;;;2.90;1.67;;;23.30;77.00;;;;;;5427411;26;20510;-45
2024/04/13 09:50:17;;;;;;;2.43;2.17;;;23.30;77.10;;;;;;5422978;26;20609;-49
2024/04/13 09:53:00;;;;;;;3.93;2.10;;;23.30;77.00;;;;;;5427031;26;20947;-43
2024/04/13 09:55:34;;;;;;;2.57;1.60;;;23.30;76.90;;;;;;5426950;26;20479;-48
2024/04/13 09:58:06;;;;;;;1.83;1.70;;;23.30;76.90;;;;;;5431040;26;20680;-44
2024/04/13 10:00:43;;;;;;;2.07;1.73;;;23.30;76.90;;;;;;5434713;26;20465;-44
2024/04/13 10:03:14;;;;;;;1.87;1.30;;;23.30;76.90;;;;;;5436899;26;20649;-44
2024/04/13 10:05:42;;;;;;;2.23;1.50;;;23.30;76.70;;;;;;5431247;26;20455;-44
2024/04/13 10:08:12;;;;;;;3.33;1.60;;;23.30;76.70;;;;;;5437378;26;20472;-47
2024/04/13 10:10:54;;;;;;;2.20;1.40;;;23.30;76.70;;;;;;5423406;26;20527;-46
2024/04/13 10:13:49;;;;;;;2.23;1.43;;;23.30;76.70;;;;;;5433057;26;20938;-44
2024/04/13 10:16:28;;;;;;;1.70;1.30;;;23.30;76.60;;;;;;5430725;26;20888;-49
2024/04/13 10:18:54;;;;;;;1.60;1.37;;;23.30;76.70;;;;;;5438297;26;20623;-44
2024/04/13 10:21:28;;;;;;;2.20;1.77;;;23.30;76.70;;;;;;5432698;26;20475;-45
2024/04/13 10:24:01;;;;;;;2.33;2.03;;;23.20;76.50;;;;;;5435999;26;20324;-47
2024/04/13 10:26:47;;;;;;;1.97;1.77;;;23.20;76.50;;;;;;5421869;26;20463;-41
2024/04/13 10:29:25;;;;;;;1.70;1.57;;;23.40;76.70;;;;;;5422297;26;20475;-47
2024/04/13 10:32:14;;;;;;;2.27;2.07;;;23.30;76.60;;;;;;5425087;26;20459;-41
2024/04/13 10:34:58;;;;;;;2.50;2.30;;;23.30;76.60;;;;;;5433134;26;20943;-44
2024/04/13 10:37:58;;;;;;;1.70;1.43;;;23.20;76.50;;;;;;5418709;26;20593;-43
2024/04/13 10:40:36;;;;;;;1.93;1.73;;;23.20;76.50;;;;;;5436437;26;21016;-42
2024/04/13 10:43:24;;;;;;;2.13;1.50;;;23.20;76.50;;;;;;5431468;26;20539;-49
2024/04/13 10:46:15;;;;;;;;;;;;;;;;;;;;;
2024/04/13 10:48:48;;;;;;;2.03;1.40;;;23.20;76.60;;;;;;5428836;26;21043;-42
2024/04/13 10:51:18;;;;;;;2.37;1.63;;;23.20;76.70;;;;;;5422196;26;21233;-49
2024/04/13 10:53:48;;;;;;;1.90;1.67;;;23.20;76.80;;;;;;5427380;26;20483;-43
2024/04/13 10:56:16;;;;;;;1.50;1.30;;;23.20;76.90;;;;;;5434786;26;20531;-47
2024/04/13 10:58:58;;;;;;;2.33;1.60;;;23.20;77.00;;;;;;5431147;26;20476;-41
2024/04/13 11:01:27;;;;;;;2.00;1.80;;;23.20;77.20;;;;;;5425146;26;20613;-47
2024/04/13 11:04:10;;;;;;;1.77;1.40;;;23.20;77.40;;;;;;5430624;26;21185;-48
2024/04/13 11:06:46;;;;;;;2.90;1.97;;;23.20;77.50;;;;;;5411362;26;20900;-47
2024/04/13 11:09:30;;;;;;;2.10;1.80;;;23.20;77.80;;;;;;5422831;26;20478;-49
2024/04/13 11:12:00;;;;;;;1.97;1.50;;;23.10;77.70;;;;;;5429959;26;21328;-49
2024/04/13 11:14:37;;;;;;;4.80;2.00;;;23.20;77.90;;;;;;5428089;26;20467;-48
2024/04/13 11:17:17;;;;;;;2.67;1.97;;;23.10;77.90;;;;;;5431546;26;21224;-44
2024/04/13 11:19:51;;;;;;;4.40;2.00;;;23.10;78.00;;;;;;5437853;26;20471;-42
2024/04/13 11:22:21;;;;;;;3.93;1.80;;;23.20;78.10;;;;;;5438001;26;21097;-45
2024/04/13 11:24:51;;;;;;;4.37;1.80;;;23.20;78.20;;;;;;5441453;26;20551;-49
2024/04/13 11:27:22;;;;;;;3.50;1.47;;;23.20;78.30;;;;;;5431419;26;20472;-48
2024/04/13 11:30:08;;;;;;;2.00;1.53;;;23.10;78.20;;;;;;5434952;26;20471;-50
2024/04/13 11:32:36;;;;;;;2.73;2.00;;;23.10;78.50;;;;;;5438929;26;20475;-55
2024/04/13 11:35:16;;;;;;;;;;;;;;;;;;;;;
2024/04/13 11:37:56;;;;;;;2.63;1.50;;;23.10;78.60;;;;;;5423814;26;20539;-43
2024/04/13 11:40:22;;;;;;;3.07;2.30;;;23.10;78.80;;;;;;5426708;26;21458;-39
2024/04/13 11:43:07;;;;;;;4.23;2.47;;;23.10;78.90;;;;;;5435330;26;20520;-45
2024/04/13 11:45:47;;;;;;;3.33;1.70;;;23.10;79.10;;;;;;5435678;26;21131;-42
2024/04/13 11:48:25;;;;;;;3.00;1.83;;;23.10;79.90;;;;;;5439184;26;20555;-43
2024/04/13 11:50:50;;;;;;;3.00;1.80;;;23.10;79.10;;;;;;5428787;26;20520;-45
2024/04/13 11:56:25;;;;;;;4.53;1.67;;;23.10;79.20;;;;;;5436327;26;20586;-45
2024/04/13 11:58:56;;;;;;;4.00;2.00;;;23.10;79.30;;;;;;5414681;26;20553;-45
2024/04/13 12:01:31;;;;;;;1.73;1.63;;;23.10;79.40;;;;;;5427363;26;20523;-48
2024/04/13 12:04:00;;;;;;;2.53;2.33;;;23.10;79.50;;;;;;5423674;26;20467;-41
2024/04/13 12:06:29;;;;;;;3.30;2.13;;;23.10;79.60;;;;;;5414233;26;21092;-43
2024/04/13 12:08:56;;;;;;;7.10;2.10;;;23.10;79.70;;;;;;5429681;26;21002;-47
2024/04/13 12:11:30;;;;;;;6.73;1.90;;;23.10;79.70;;;;;;5427712;26;20464;-46
2024/04/13 12:13:58;;;;;;;7.00;2.03;;;23.00;79.60;;;;;;5416763;26;20467;-44
2024/04/13 12:16:32;;;;;;;3.70;1.77;;;23.10;79.70;;;;;;5444275;26;20588;-41
2024/04/13 12:18:58;;;;;;;5.50;2.50;;;23.10;79.60;;;;;;5431109;26;20694;-49
2024/04/13 12:21:26;;;;;;;4.77;2.20;;;23.00;79.50;;;;;;5431798;26;20825;-50
2024/04/13 12:23:54;;;;;;;4.73;2.87;;;23.00;79.50;;;;;;5408618;26;20645;-47
2024/04/13 12:26:37;;;;;;;3.27;2.23;;;23.00;80.20;;;;;;5426338;26;20464;-45
2024/04/13 12:29:05;;;;;;;6.73;2.13;;;23.00;79.60;;;;;;5420845;26;21022;-44
2024/04/13 12:31:39;;;;;;;5.57;1.60;;;22.90;79.60;;;;;;5431944;26;20524;-45
2024/04/13 12:34:08;;;;;;;3.13;2.40;;;23.00;79.70;;;;;;5431221;26;21059;-48
2024/04/13 12:36:39;;;;;;;6.07;3.10;;;22.90;79.60;;;;;;5429176;26;20452;-49
2024/04/13 12:39:15;;;;;;;2.30;1.67;;;22.90;79.70;;;;;;5436038;26;20519;-50
2024/04/13 12:41:47;;;;;;;4.03;2.20;;;23.00;79.90;;;;;;5423374;26;22504;-44
2024/04/13 12:44:18;;;;;;;4.90;2.27;;;23.00;79.90;;;;;;5420250;26;20517;-45
2024/04/13 12:46:50;;;;;;;4.80;1.83;;;22.90;79.90;;;;;;5417744;26;20512;-46
2024/04/13 12:49:17;;;;;;;3.90;2.20;;;22.90;79.90;;;;;;5434101;26;20487;-50
2024/04/13 12:51:51;;;;;;;2.07;1.70;;;22.90;79.90;;;;;;5423009;26;20639;-48
2024/04/13 12:54:19;;;;;;;4.83;1.73;;;22.90;80.00;;;;;;5435629;26;21197;-51
2024/04/13 12:56:56;;;;;;;2.07;1.87;;;22.90;80.00;;;;;;5432902;26;20520;-43
2024/04/13 12:59:25;;;;;;;2.47;1.80;;;22.90;80.00;;;;;;5429203;26;20495;-37
2024/04/13 13:01:59;;;;;;;6.10;2.03;;;22.90;80.10;;;;;;5426495;26;20456;-53
2024/04/13 13:04:27;;;;;;;3.40;1.50;;;22.90;80.20;;;;;;5424944;26;20487;-46
2024/04/13 13:06:58;;;;;;;3.63;2.13;;;22.80;80.00;;;;;;5421987;26;20511;-50
2024/04/13 13:09:26;;;;;;;3.30;2.30;;;22.90;80.10;;;;;;5438754;26;20460;-51
2024/04/13 13:11:58;;;;;;;2.90;1.90;;;22.90;80.20;;;;;;5426122;26;20914;-41
2024/04/13 13:14:26;;;;;;;5.50;2.23;;;22.90;80.20;;;;;;5433947;26;21045;-51
2024/04/13 13:16:57;;;;;;;2.70;1.87;;;22.90;80.20;;;;;;5423397;26;20451;-43
2024/04/13 13:19:27;;;;;;;2.60;1.73;;;22.90;80.30;;;;;;5431473;26;20566;-52
2024/04/13 13:21:55;;;;;;;3.10;2.10;;;22.90;80.30;;;;;;5424903;26;20570;-45
2024/04/13 13:24:21;;;;;;;3.80;2.30;;;22.90;80.20;;;;;;5413287;26;20572;-49